General Aviation Weather

Text Reports

Enter one or more of the following location identifiers separated by a space:

Zip Code, Four-Character ICAO or Three-Character IATA airport codes.

METAR - Aviation Routine Weather Report
KLWA - South Haven, Michigan
Updated at 5:16 AM GMT on August 20, 2014 (1:16 AM EDT):
METAR KLWA 200516Z AUTO 00000KT 10SM SCT070 20/20 A2977 RMK AO2 T01990196
TAF - Terminal Area Forecast
KLWA - South Haven, Michigan
Updated at 5:16 AM GMT on August 20, 2014 (1:16 AM EDT):
No TAF is currently available for this location.
Decoded:
No decoded TAF is available.
PIREP - Pilot Weather Report
KLWA - South Haven, Michigan
Updated at 5:16 AM GMT on August 20, 2014 (1:16 AM EDT):
No PIREP is currently available for this location.
AIRMET - Airmens Meteorological Information
KLWA - South Haven, Michigan
Updated at 5:16 AM GMT on August 20, 2014 (1:16 AM EDT):
No AIRMET is currently available for this location.
SIGMET - Significant Meteorological Information
KLWA - South Haven, Michigan
Updated at 5:16 AM GMT on August 20, 2014 (1:16 AM EDT):
No SIGMET is currently available for this location.
NOTAM - Notice to Airmen
KLWA - South Haven, Michigan
Updated at 5:16 AM GMT on August 20, 2014 (1:16 AM EDT):
No NOTAM is currently available for this location.
Forecast Area
KLWA - South Haven, Michigan
Updated at 5:16 AM GMT on August 20, 2014 (1:16 AM EDT):
No NOTAM is currently available for this location.
Aviation Weather Maps